sensor_id;sensor_type;location;lat;lon;timestamp;temperature;humidity
6373;DHT22;3219;51.362;7.074;2023-04-10T00:01:59;8.50;99.90
6373;DHT22;3219;51.362;7.074;2023-04-10T00:04:27;8.40;99.90
6373;DHT22;3219;51.362;7.074;2023-04-10T00:06:54;8.40;99.90
6373;DHT22;3219;51.362;7.074;2023-04-10T00:09:21;8.30;99.90
6373;DHT22;3219;51.362;7.074;2023-04-10T00:11:48;8.20;99.90
6373;DHT22;3219;51.362;7.074;2023-04-10T00:14:15;8.20;99.90
6373;DHT22;3219;51.362;7.074;2023-04-10T00:16:47;8.20;99.90
6373;DHT22;3219;51.362;7.074;2023-04-10T00:19:14;8.10;99.90
6373;DHT22;3219;51.362;7.074;2023-04-10T00:21:42;8.50;99.90
6373;DHT22;3219;51.362;7.074;2023-04-10T00:24:09;8.10;99.90
6373;DHT22;3219;51.362;7.074;2023-04-10T00:26:36;8.10;99.90
6373;DHT22;3219;51.362;7.074;2023-04-10T00:29:03;8.10;99.90
6373;DHT22;3219;51.362;7.074;2023-04-10T00:31:29;8.10;99.90
6373;DHT22;3219;51.362;7.074;2023-04-10T00:33:57;8.10;99.90
6373;DHT22;3219;51.362;7.074;2023-04-10T00:36:23;8.10;99.90
6373;DHT22;3219;51.362;7.074;2023-04-10T00:38:52;8.10;99.90
6373;DHT22;3219;51.362;7.074;2023-04-10T00:41:19;8.10;99.90
6373;DHT22;3219;51.362;7.074;2023-04-10T00:43:46;8.10;99.90
6373;DHT22;3219;51.362;7.074;2023-04-10T00:46:12;8.10;99.90
6373;DHT22;3219;51.362;7.074;2023-04-10T00:48:39;8.20;99.90
6373;DHT22;3219;51.362;7.074;2023-04-10T00:51:06;8.20;99.90
6373;DHT22;3219;51.362;7.074;2023-04-10T00:53:33;8.20;99.90
6373;DHT22;3219;51.362;7.074;2023-04-10T00:56:01;8.20;99.90
6373;DHT22;3219;51.362;7.074;2023-04-10T00:58:28;8.20;99.90
6373;DHT22;3219;51.362;7.074;2023-04-10T01:00:55;8.20;99.90
6373;DHT22;3219;51.362;7.074;2023-04-10T01:03:22;8.20;99.90
6373;DHT22;3219;51.362;7.074;2023-04-10T01:05:54;8.20;99.90
6373;DHT22;3219;51.362;7.074;2023-04-10T01:11:09;8.10;99.90
6373;DHT22;3219;51.362;7.074;2023-04-10T01:13:44;8.10;99.90
6373;DHT22;3219;51.362;7.074;2023-04-10T01:16:18;8.10;99.90
6373;DHT22;3219;51.362;7.074;2023-04-10T01:18:47;8.10;99.90
6373;DHT22;3219;51.362;7.074;2023-04-10T01:21:16;8.10;99.90
6373;DHT22;3219;51.362;7.074;2023-04-10T01:23:55;8.10;99.90
6373;DHT22;3219;51.362;7.074;2023-04-10T01:26:41;8.10;99.90
6373;DHT22;3219;51.362;7.074;2023-04-10T01:29:16;8.10;99.90
6373;DHT22;3219;51.362;7.074;2023-04-10T01:31:49;8.10;99.90
6373;DHT22;3219;51.362;7.074;2023-04-10T01:34:20;8.20;99.90
6373;DHT22;3219;51.362;7.074;2023-04-10T01:36:49;8.20;99.90
6373;DHT22;3219;51.362;7.074;2023-04-10T01:39:18;8.20;99.90
6373;DHT22;3219;51.362;7.074;2023-04-10T01:41:47;8.20;99.90
6373;DHT22;3219;51.362;7.074;2023-04-10T01:44:20;8.20;99.90
6373;DHT22;3219;51.362;7.074;2023-04-10T01:46:51;8.30;99.90
6373;DHT22;3219;51.362;7.074;2023-04-10T01:49:19;8.30;99.90
6373;DHT22;3219;51.362;7.074;2023-04-10T01:51:46;8.30;99.90
6373;DHT22;3219;51.362;7.074;2023-04-10T01:54:14;8.40;99.90
6373;DHT22;3219;51.362;7.074;2023-04-10T01:56:42;8.40;99.90
6373;DHT22;3219;51.362;7.074;2023-04-10T01:59:10;8.40;99.90
6373;DHT22;3219;51.362;7.074;2023-04-10T02:01:38;8.50;99.90
6373;DHT22;3219;51.362;7.074;2023-04-10T02:04:05;8.50;99.90
6373;DHT22;3219;51.362;7.074;2023-04-10T02:06:41;8.50;99.90
6373;DHT22;3219;51.362;7.074;2023-04-10T02:09:16;8.50;99.90
6373;DHT22;3219;51.362;7.074;2023-04-10T02:11:48;8.50;99.90
6373;DHT22;3219;51.362;7.074;2023-04-10T02:14:19;8.50;99.90
6373;DHT22;3219;51.362;7.074;2023-04-10T02:16:50;8.50;99.90
6373;DHT22;3219;51.362;7.074;2023-04-10T02:19:20;8.50;99.90
6373;DHT22;3219;51.362;7.074;2023-04-10T02:21:48;8.50;99.90
6373;DHT22;3219;51.362;7.074;2023-04-10T02:24:16;8.50;99.90
6373;DHT22;3219;51.362;7.074;2023-04-10T02:26:46;8.50;99.90
6373;DHT22;3219;51.362;7.074;2023-04-10T02:29:13;8.40;99.90
6373;DHT22;3219;51.362;7.074;2023-04-10T02:31:40;8.40;99.90
6373;DHT22;3219;51.362;7.074;2023-04-10T02:34:08;8.40;99.90
6373;DHT22;3219;51.362;7.074;2023-04-10T02:36:36;8.40;99.90
6373;DHT22;3219;51.362;7.074;2023-04-10T02:39:03;8.50;99.90
6373;DHT22;3219;51.362;7.074;2023-04-10T02:41:30;8.50;99.90
6373;DHT22;3219;51.362;7.074;2023-04-10T02:43:57;8.50;99.90
6373;DHT22;3219;51.362;7.074;2023-04-10T02:46:24;8.50;99.90
6373;DHT22;3219;51.362;7.074;2023-04-10T02:48:51;8.50;99.90
6373;DHT22;3219;51.362;7.074;2023-04-10T02:51:20;8.50;99.90
6373;DHT22;3219;51.362;7.074;2023-04-10T02:53:47;8.50;99.90
6373;DHT22;3219;51.362;7.074;2023-04-10T02:56:13;8.50;99.90
6373;DHT22;3219;51.362;7.074;2023-04-10T02:58:40;8.50;99.90
6373;DHT22;3219;51.362;7.074;2023-04-10T03:01:11;8.50;99.90
6373;DHT22;3219;51.362;7.074;2023-04-10T03:03:38;8.50;99.90
6373;DHT22;3219;51.362;7.074;2023-04-10T03:06:06;8.50;99.90
6373;DHT22;3219;51.362;7.074;2023-04-10T03:08:34;8.40;99.90
6373;DHT22;3219;51.362;7.074;2023-04-10T03:11:00;8.40;99.90
6373;DHT22;3219;51.362;7.074;2023-04-10T03:13:27;8.40;99.90
6373;DHT22;3219;51.362;7.074;2023-04-10T03:15:54;8.40;99.90
6373;DHT22;3219;51.362;7.074;2023-04-10T03:18:21;8.40;99.90
6373;DHT22;3219;51.362;7.074;2023-04-10T03:20:48;8.30;99.90
6373;DHT22;3219;51.362;7.074;2023-04-10T03:23:15;8.30;99.90
6373;DHT22;3219;51.362;7.074;2023-04-10T03:25:43;8.30;99.90
6373;DHT22;3219;51.362;7.074;2023-04-10T03:28:10;8.40;99.90
6373;DHT22;3219;51.362;7.074;2023-04-10T03:30:36;8.40;99.90
6373;DHT22;3219;51.362;7.074;2023-04-10T03:33:03;8.40;99.90
6373;DHT22;3219;51.362;7.074;2023-04-10T03:35:30;8.40;99.90
6373;DHT22;3219;51.362;7.074;2023-04-10T03:37:57;8.40;99.90
6373;DHT22;3219;51.362;7.074;2023-04-10T03:40:23;8.40;99.90
6373;DHT22;3219;51.362;7.074;2023-04-10T03:42:51;8.40;99.90
6373;DHT22;3219;51.362;7.074;2023-04-10T03:45:18;8.40;99.90
6373;DHT22;3219;51.362;7.074;2023-04-10T03:47:45;8.40;99.90
6373;DHT22;3219;51.362;7.074;2023-04-10T03:50:12;8.40;99.90
6373;DHT22;3219;51.362;7.074;2023-04-10T03:52:39;8.30;99.90
6373;DHT22;3219;51.362;7.074;2023-04-10T03:55:06;8.30;99.90
6373;DHT22;3219;51.362;7.074;2023-04-10T03:57:33;8.30;99.90
6373;DHT22;3219;51.362;7.074;2023-04-10T04:00:01;8.30;99.90
6373;DHT22;3219;51.362;7.074;2023-04-10T04:02:28;8.30;99.90
6373;DHT22;3219;51.362;7.074;2023-04-10T04:04:55;8.30;99.90
6373;DHT22;3219;51.362;7.074;2023-04-10T04:07:22;8.30;99.90
6373;DHT22;3219;51.362;7.074;2023-04-10T04:09:48;8.40;99.90
6373;DHT22;3219;51.362;7.074;2023-04-10T04:12:15;8.40;99.90
6373;DHT22;3219;51.362;7.074;2023-04-10T04:14:42;8.50;99.90
6373;DHT22;3219;51.362;7.074;2023-04-10T04:17:11;8.40;99.90
6373;DHT22;3219;51.362;7.074;2023-04-10T04:19:37;8.50;99.90
6373;DHT22;3219;51.362;7.074;2023-04-10T04:22:04;8.50;99.90
6373;DHT22;3219;51.362;7.074;2023-04-10T04:24:31;8.50;99.90
6373;DHT22;3219;51.362;7.074;2023-04-10T04:26:58;8.50;99.90
6373;DHT22;3219;51.362;7.074;2023-04-10T04:29:25;8.50;99.90
6373;DHT22;3219;51.362;7.074;2023-04-10T04:31:52;8.50;99.90
6373;DHT22;3219;51.362;7.074;2023-04-10T04:34:20;8.60;99.90
6373;DHT22;3219;51.362;7.074;2023-04-10T04:36:47;8.60;99.90
6373;DHT22;3219;51.362;7.074;2023-04-10T04:39:14;8.60;99.90
6373;DHT22;3219;51.362;7.074;2023-04-10T04:41:40;8.60;99.90
6373;DHT22;3219;51.362;7.074;2023-04-10T04:44:08;8.60;99.90
6373;DHT22;3219;51.362;7.074;2023-04-10T04:46:35;8.60;99.90
6373;DHT22;3219;51.362;7.074;2023-04-10T04:49:02;8.60;99.90
6373;DHT22;3219;51.362;7.074;2023-04-10T04:51:30;8.60;99.90
6373;DHT22;3219;51.362;7.074;2023-04-10T04:53:56;8.60;99.90
6373;DHT22;3219;51.362;7.074;2023-04-10T04:56:23;8.60;99.90
6373;DHT22;3219;51.362;7.074;2023-04-10T04:58:50;8.70;99.90
6373;DHT22;3219;51.362;7.074;2023-04-10T05:01:17;8.70;99.90
6373;DHT22;3219;51.362;7.074;2023-04-10T05:03:43;8.70;99.90
6373;DHT22;3219;51.362;7.074;2023-04-10T05:06:10;8.80;99.90
6373;DHT22;3219;51.362;7.074;2023-04-10T05:08:38;8.80;99.90
6373;DHT22;3219;51.362;7.074;2023-04-10T05:11:05;8.80;99.90
6373;DHT22;3219;51.362;7.074;2023-04-10T05:13:32;8.80;99.90
6373;DHT22;3219;51.362;7.074;2023-04-10T05:15:59;8.90;99.90
6373;DHT22;3219;51.362;7.074;2023-04-10T05:18:26;9.00;99.90
6373;DHT22;3219;51.362;7.074;2023-04-10T05:20:53;9.10;99.90
6373;DHT22;3219;51.362;7.074;2023-04-10T05:23:19;9.10;99.90
6373;DHT22;3219;51.362;7.074;2023-04-10T05:25:47;9.20;99.90
6373;DHT22;3219;51.362;7.074;2023-04-10T05:28:15;9.40;99.90
6373;DHT22;3219;51.362;7.074;2023-04-10T05:30:41;9.50;99.90
6373;DHT22;3219;51.362;7.074;2023-04-10T05:33:08;9.70;99.90
6373;DHT22;3219;51.362;7.074;2023-04-10T05:35:35;9.90;99.90
6373;DHT22;3219;51.362;7.074;2023-04-10T05:38:01;10.30;99.90
6373;DHT22;3219;51.362;7.074;2023-04-10T05:40:28;10.70;99.90
6373;DHT22;3219;51.362;7.074;2023-04-10T05:42:56;11.00;99.90
6373;DHT22;3219;51.362;7.074;2023-04-10T05:45:23;11.20;99.90
6373;DHT22;3219;51.362;7.074;2023-04-10T05:47:50;11.20;99.90
6373;DHT22;3219;51.362;7.074;2023-04-10T05:50:17;11.40;99.90
6373;DHT22;3219;51.362;7.074;2023-04-10T05:52:43;11.60;99.90
6373;DHT22;3219;51.362;7.074;2023-04-10T05:55:11;12.00;99.90
6373;DHT22;3219;51.362;7.074;2023-04-10T05:57:38;12.60;99.90
6373;DHT22;3219;51.362;7.074;2023-04-10T06:00:07;13.40;99.90
6373;DHT22;3219;51.362;7.074;2023-04-10T06:02:34;14.20;99.90
6373;DHT22;3219;51.362;7.074;2023-04-10T06:05:01;14.90;99.30
6373;DHT22;3219;51.362;7.074;2023-04-10T06:07:27;15.80;98.80
6373;DHT22;3219;51.362;7.074;2023-04-10T06:09:54;16.70;97.80
6373;DHT22;3219;51.362;7.074;2023-04-10T06:12:21;17.70;98.30
6373;DHT22;3219;51.362;7.074;2023-04-10T06:14:47;18.80;98.40
6373;DHT22;3219;51.362;7.074;2023-04-10T06:17:16;19.40;97.80
6373;DHT22;3219;51.362;7.074;2023-04-10T06:19:45;20.10;93.70
6373;DHT22;3219;51.362;7.074;2023-04-10T06:22:12;20.90;94.40
6373;DHT22;3219;51.362;7.074;2023-04-10T06:24:38;21.20;95.10
6373;DHT22;3219;51.362;7.074;2023-04-10T06:29:33;21.40;94.20
6373;DHT22;3219;51.362;7.074;2023-04-10T06:31:59;21.60;95.20
6373;DHT22;3219;51.362;7.074;2023-04-10T06:34:27;21.40;95.30
6373;DHT22;3219;51.362;7.074;2023-04-10T06:36:54;21.20;93.50
6373;DHT22;3219;51.362;7.074;2023-04-10T06:39:21;20.70;93.50
6373;DHT22;3219;51.362;7.074;2023-04-10T06:41:48;20.30;93.50
6373;DHT22;3219;51.362;7.074;2023-04-10T06:44:14;19.90;93.40
6373;DHT22;3219;51.362;7.074;2023-04-10T06:46:41;19.60;93.60
6373;DHT22;3219;51.362;7.074;2023-04-10T06:49:08;19.60;94.20
6373;DHT22;3219;51.362;7.074;2023-04-10T06:51:36;19.70;94.20
6373;DHT22;3219;51.362;7.074;2023-04-10T06:54:03;20.40;94.90
6373;DHT22;3219;51.362;7.074;2023-04-10T06:56:29;20.90;94.00
6373;DHT22;3219;51.362;7.074;2023-04-10T06:58:56;21.50;94.60
6373;DHT22;3219;51.362;7.074;2023-04-10T07:06:18;22.70;93.70
6373;DHT22;3219;51.362;7.074;2023-04-10T07:23:37;21.10;95.00
6373;DHT22;3219;51.362;7.074;2023-04-10T07:26:06;20.40;94.20
6373;DHT22;3219;51.362;7.074;2023-04-10T07:28:32;19.40;93.90
6373;DHT22;3219;51.362;7.074;2023-04-10T07:30:59;18.70;94.30
6373;DHT22;3219;51.362;7.074;2023-04-10T07:33:26;18.20;94.80
6373;DHT22;3219;51.362;7.074;2023-04-10T07:35:53;18.20;94.80
6373;DHT22;3219;51.362;7.074;2023-04-10T07:38:19;18.50;95.10
6373;DHT22;3219;51.362;7.074;2023-04-10T07:40:48;18.90;95.60
6373;DHT22;3219;51.362;7.074;2023-04-10T07:43:16;19.00;95.30
6373;DHT22;3219;51.362;7.074;2023-04-10T07:45:43;19.50;95.70
6373;DHT22;3219;51.362;7.074;2023-04-10T07:48:10;19.60;95.40
6373;DHT22;3219;51.362;7.074;2023-04-10T07:50:37;19.50;95.50
6373;DHT22;3219;51.362;7.074;2023-04-10T07:53:03;19.60;96.10
6373;DHT22;3219;51.362;7.074;2023-04-10T07:55:36;19.40;94.80
6373;DHT22;3219;51.362;7.074;2023-04-10T07:58:03;19.60;94.70
6373;DHT22;3219;51.362;7.074;2023-04-10T08:00:31;19.30;94.00
6373;DHT22;3219;51.362;7.074;2023-04-10T08:02:58;18.70;94.00
6373;DHT22;3219;51.362;7.074;2023-04-10T08:05:25;18.60;94.50
6373;DHT22;3219;51.362;7.074;2023-04-10T08:07:52;18.70;94.30
6373;DHT22;3219;51.362;7.074;2023-04-10T08:10:19;18.80;94.30
6373;DHT22;3219;51.362;7.074;2023-04-10T08:12:46;18.90;93.90
6373;DHT22;3219;51.362;7.074;2023-04-10T08:15:13;19.10;94.30
6373;DHT22;3219;51.362;7.074;2023-04-10T08:17:41;18.90;94.30
6373;DHT22;3219;51.362;7.074;2023-04-10T08:20:08;19.00;94.60
6373;DHT22;3219;51.362;7.074;2023-04-10T08:22:35;19.20;94.40
6373;DHT22;3219;51.362;7.074;2023-04-10T08:25:03;19.10;94.50
6373;DHT22;3219;51.362;7.074;2023-04-10T08:27:30;18.60;94.00
6373;DHT22;3219;51.362;7.074;2023-04-10T08:29:56;18.20;94.70
6373;DHT22;3219;51.362;7.074;2023-04-10T08:32:24;17.70;94.70
6373;DHT22;3219;51.362;7.074;2023-04-10T08:34:53;17.40;94.80
6373;DHT22;3219;51.362;7.074;2023-04-10T08:37:20;17.10;95.80
6373;DHT22;3219;51.362;7.074;2023-04-10T08:39:47;17.00;95.30
6373;DHT22;3219;51.362;7.074;2023-04-10T08:42:13;16.90;96.10
6373;DHT22;3219;51.362;7.074;2023-04-10T08:44:40;16.90;95.20
6373;DHT22;3219;51.362;7.074;2023-04-10T08:47:07;16.60;95.50
6373;DHT22;3219;51.362;7.074;2023-04-10T08:49:39;16.60;95.80
6373;DHT22;3219;51.362;7.074;2023-04-10T08:52:12;16.40;95.50
6373;DHT22;3219;51.362;7.074;2023-04-10T08:54:40;16.40;96.20
6373;DHT22;3219;51.362;7.074;2023-04-10T08:57:12;16.30;96.30
6373;DHT22;3219;51.362;7.074;2023-04-10T08:59:42;16.30;96.30
6373;DHT22;3219;51.362;7.074;2023-04-10T09:02:08;16.30;95.90
6373;DHT22;3219;51.362;7.074;2023-04-10T09:04:35;16.20;95.60
6373;DHT22;3219;51.362;7.074;2023-04-10T09:07:02;16.00;95.90
6373;DHT22;3219;51.362;7.074;2023-04-10T09:09:30;15.90;96.20
6373;DHT22;3219;51.362;7.074;2023-04-10T09:11:59;15.80;96.80
6373;DHT22;3219;51.362;7.074;2023-04-10T09:14:29;15.70;96.10
6373;DHT22;3219;51.362;7.074;2023-04-10T09:17:16;15.70;97.10
6373;DHT22;3219;51.362;7.074;2023-04-10T09:19:43;15.70;96.80
6373;DHT22;3219;51.362;7.074;2023-04-10T09:22:10;15.70;97.10
6373;DHT22;3219;51.362;7.074;2023-04-10T09:24:40;15.70;96.40
6373;DHT22;3219;51.362;7.074;2023-04-10T09:27:07;15.70;96.70
6373;DHT22;3219;51.362;7.074;2023-04-10T09:29:42;15.70;97.30
6373;DHT22;3219;51.362;7.074;2023-04-10T09:32:09;15.70;96.90
6373;DHT22;3219;51.362;7.074;2023-04-10T09:34:51;15.60;96.70
6373;DHT22;3219;51.362;7.074;2023-04-10T09:37:18;15.60;96.60
6373;DHT22;3219;51.362;7.074;2023-04-10T09:39:48;15.60;97.20
6373;DHT22;3219;51.362;7.074;2023-04-10T09:42:15;15.70;97.20
6373;DHT22;3219;51.362;7.074;2023-04-10T09:44:42;15.70;98.00
6373;DHT22;3219;51.362;7.074;2023-04-10T09:47:16;15.90;97.70
6373;DHT22;3219;51.362;7.074;2023-04-10T09:49:46;16.10;97.90
6373;DHT22;3219;51.362;7.074;2023-04-10T09:52:17;16.30;97.50
6373;DHT22;3219;51.362;7.074;2023-04-10T09:54:44;16.30;97.30
6373;DHT22;3219;51.362;7.074;2023-04-10T09:57:13;16.20;97.00
6373;DHT22;3219;51.362;7.074;2023-04-10T09:59:43;16.10;97.60
6373;DHT22;3219;51.362;7.074;2023-04-10T10:02:12;16.10;98.30
6373;DHT22;3219;51.362;7.074;2023-04-10T10:04:41;16.20;98.00
6373;DHT22;3219;51.362;7.074;2023-04-10T10:07:09;16.20;98.00
6373;DHT22;3219;51.362;7.074;2023-04-10T10:09:36;16.20;97.30
6373;DHT22;3219;51.362;7.074;2023-04-10T10:12:03;16.20;97.50
6373;DHT22;3219;51.362;7.074;2023-04-10T10:14:36;16.30;97.10
6373;DHT22;3219;51.362;7.074;2023-04-10T10:17:09;16.30;97.60
6373;DHT22;3219;51.362;7.074;2023-04-10T10:19:41;16.50;98.40
6373;DHT22;3219;51.362;7.074;2023-04-10T10:22:10;16.60;98.00
6373;DHT22;3219;51.362;7.074;2023-04-10T10:24:39;16.70;97.70
6373;DHT22;3219;51.362;7.074;2023-04-10T10:27:11;16.70;97.30
6373;DHT22;3219;51.362;7.074;2023-04-10T10:29:43;16.70;97.40
6373;DHT22;3219;51.362;7.074;2023-04-10T10:32:12;16.60;97.00
6373;DHT22;3219;51.362;7.074;2023-04-10T10:34:40;16.60;97.30
6373;DHT22;3219;51.362;7.074;2023-04-10T10:37:07;16.70;98.30
6373;DHT22;3219;51.362;7.074;2023-04-10T10:39:44;16.80;98.10
6373;DHT22;3219;51.362;7.074;2023-04-10T10:42:17;16.80;97.60
6373;DHT22;3219;51.362;7.074;2023-04-10T10:44:51;16.90;97.40
6373;DHT22;3219;51.362;7.074;2023-04-10T10:47:25;17.00;97.20
6373;DHT22;3219;51.362;7.074;2023-04-10T10:49:54;17.00;97.00
6373;DHT22;3219;51.362;7.074;2023-04-10T10:52:38;17.00;97.10
6373;DHT22;3219;51.362;7.074;2023-04-10T10:55:30;16.90;84.60
6373;DHT22;3219;51.362;7.074;2023-04-10T10:58:00;16.90;86.40
6373;DHT22;3219;51.362;7.074;2023-04-10T11:03:36;17.10;86.50
6373;DHT22;3219;51.362;7.074;2023-04-10T11:06:05;17.00;85.90
6373;DHT22;3219;51.362;7.074;2023-04-10T11:08:37;17.00;85.60
6373;DHT22;3219;51.362;7.074;2023-04-10T11:11:07;17.00;86.50
6373;DHT22;3219;51.362;7.074;2023-04-10T11:13:35;16.80;85.50
6373;DHT22;3219;51.362;7.074;2023-04-10T11:16:04;16.80;84.30
6373;DHT22;3219;51.362;7.074;2023-04-10T11:19:04;16.70;85.80
6373;DHT22;3219;51.362;7.074;2023-04-10T11:21:31;16.60;85.80
6373;DHT22;3219;51.362;7.074;2023-04-10T11:24:03;16.40;86.10
6373;DHT22;3219;51.362;7.074;2023-04-10T11:26:37;16.40;85.80
6373;DHT22;3219;51.362;7.074;2023-04-10T11:29:05;16.50;85.10
6373;DHT22;3219;51.362;7.074;2023-04-10T11:31:33;16.50;84.40
6373;DHT22;3219;51.362;7.074;2023-04-10T11:34:01;16.60;85.50
6373;DHT22;3219;51.362;7.074;2023-04-10T11:36:30;16.70;86.70
6373;DHT22;3219;51.362;7.074;2023-04-10T11:38:58;16.80;85.40
6373;DHT22;3219;51.362;7.074;2023-04-10T11:41:28;16.90;84.40
6373;DHT22;3219;51.362;7.074;2023-04-10T11:43:56;16.90;85.90
6373;DHT22;3219;51.362;7.074;2023-04-10T11:46:23;16.90;85.20
6373;DHT22;3219;51.362;7.074;2023-04-10T11:48:52;16.90;83.70
6373;DHT22;3219;51.362;7.074;2023-04-10T11:51:19;16.80;84.70
6373;DHT22;3219;51.362;7.074;2023-04-10T11:53:47;16.90;83.10
6373;DHT22;3219;51.362;7.074;2023-04-10T11:56:15;16.90;82.70
6373;DHT22;3219;51.362;7.074;2023-04-10T11:58:42;16.90;84.20
6373;DHT22;3219;51.362;7.074;2023-04-10T12:01:09;16.90;84.50
6373;DHT22;3219;51.362;7.074;2023-04-10T12:03:39;16.90;84.80
6373;DHT22;3219;51.362;7.074;2023-04-10T12:06:08;16.90;85.80
6373;DHT22;3219;51.362;7.074;2023-04-10T12:08:36;16.80;83.30
6373;DHT22;3219;51.362;7.074;2023-04-10T12:11:05;16.80;82.40
6373;DHT22;3219;51.362;7.074;2023-04-10T12:13:32;16.70;85.00
6373;DHT22;3219;51.362;7.074;2023-04-10T12:16:00;16.70;83.80
6373;DHT22;3219;51.362;7.074;2023-04-10T12:18:28;16.70;84.20
6373;DHT22;3219;51.362;7.074;2023-04-10T12:20:55;16.70;84.70
6373;DHT22;3219;51.362;7.074;2023-04-10T12:23:23;16.80;86.50
6373;DHT22;3219;51.362;7.074;2023-04-10T12:25:51;16.80;84.80
6373;DHT22;3219;51.362;7.074;2023-04-10T12:28:20;16.90;84.50
6373;DHT22;3219;51.362;7.074;2023-04-10T12:30:48;17.00;86.30
6373;DHT22;3219;51.362;7.074;2023-04-10T12:33:19;17.10;84.60
6373;DHT22;3219;51.362;7.074;2023-04-10T12:35:47;17.10;83.40
6373;DHT22;3219;51.362;7.074;2023-04-10T12:38:13;17.10;85.50
6373;DHT22;3219;51.362;7.074;2023-04-10T12:40:58;17.20;86.50
6373;DHT22;3219;51.362;7.074;2023-04-10T12:43:34;17.30;85.80
6373;DHT22;3219;51.362;7.074;2023-04-10T12:46:01;17.30;85.70
6373;DHT22;3219;51.362;7.074;2023-04-10T12:48:28;17.40;86.20
6373;DHT22;3219;51.362;7.074;2023-04-10T12:50:55;17.30;85.00
6373;DHT22;3219;51.362;7.074;2023-04-10T12:53:23;17.30;86.60
6373;DHT22;3219;51.362;7.074;2023-04-10T12:56:00;17.20;84.70
6373;DHT22;3219;51.362;7.074;2023-04-10T12:58:28;17.10;83.80
6373;DHT22;3219;51.362;7.074;2023-04-10T13:00:57;17.10;85.10
6373;DHT22;3219;51.362;7.074;2023-04-10T13:03:25;17.20;86.00
6373;DHT22;3219;51.362;7.074;2023-04-10T13:05:52;17.30;84.70
6373;DHT22;3219;51.362;7.074;2023-04-10T13:08:19;17.30;86.40
6373;DHT22;3219;51.362;7.074;2023-04-10T13:10:46;17.20;86.50
6373;DHT22;3219;51.362;7.074;2023-04-10T13:13:13;17.20;85.70
6373;DHT22;3219;51.362;7.074;2023-04-10T13:15:40;17.20;85.00
6373;DHT22;3219;51.362;7.074;2023-04-10T13:18:09;17.10;86.70
6373;DHT22;3219;51.362;7.074;2023-04-10T13:20:36;17.20;85.70
6373;DHT22;3219;51.362;7.074;2023-04-10T13:23:03;17.20;85.60
6373;DHT22;3219;51.362;7.074;2023-04-10T13:25:31;17.10;86.20
6373;DHT22;3219;51.362;7.074;2023-04-10T13:27:59;17.10;86.90
6373;DHT22;3219;51.362;7.074;2023-04-10T13:30:26;17.00;87.40
6373;DHT22;3219;51.362;7.074;2023-04-10T13:32:52;17.00;86.60
6373;DHT22;3219;51.362;7.074;2023-04-10T13:35:21;16.90;85.50
6373;DHT22;3219;51.362;7.074;2023-04-10T13:37:48;16.90;87.30
6373;DHT22;3219;51.362;7.074;2023-04-10T13:40:18;16.80;85.80
6373;DHT22;3219;51.362;7.074;2023-04-10T13:42:45;16.80;87.00
6373;DHT22;3219;51.362;7.074;2023-04-10T13:45:12;16.70;86.50
6373;DHT22;3219;51.362;7.074;2023-04-10T13:47:39;16.70;86.50
6373;DHT22;3219;51.362;7.074;2023-04-10T13:50:07;16.70;87.40
6373;DHT22;3219;51.362;7.074;2023-04-10T13:52:35;16.70;87.20
6373;DHT22;3219;51.362;7.074;2023-04-10T13:55:02;16.80;88.60
6373;DHT22;3219;51.362;7.074;2023-04-10T13:57:28;16.80;86.90
6373;DHT22;3219;51.362;7.074;2023-04-10T13:59:55;16.80;87.70
6373;DHT22;3219;51.362;7.074;2023-04-10T14:02:22;16.80;87.80
6373;DHT22;3219;51.362;7.074;2023-04-10T14:04:48;16.80;88.00
6373;DHT22;3219;51.362;7.074;2023-04-10T14:07:16;16.80;89.20
6373;DHT22;3219;51.362;7.074;2023-04-10T14:09:45;16.80;88.50
6373;DHT22;3219;51.362;7.074;2023-04-10T14:12:13;16.90;89.00
6373;DHT22;3219;51.362;7.074;2023-04-10T14:14:41;16.90;86.50
6373;DHT22;3219;51.362;7.074;2023-04-10T14:17:07;16.80;86.90
6373;DHT22;3219;51.362;7.074;2023-04-10T14:19:35;16.70;88.10
6373;DHT22;3219;51.362;7.074;2023-04-10T14:22:02;16.70;87.60
6373;DHT22;3219;51.362;7.074;2023-04-10T14:24:29;16.70;87.40
6373;DHT22;3219;51.362;7.074;2023-04-10T14:26:57;16.70;88.00
6373;DHT22;3219;51.362;7.074;2023-04-10T14:29:25;16.60;88.70
6373;DHT22;3219;51.362;7.074;2023-04-10T14:31:52;16.60;88.80
6373;DHT22;3219;51.362;7.074;2023-04-10T14:34:19;16.60;88.70
6373;DHT22;3219;51.362;7.074;2023-04-10T14:36:46;16.60;88.70
6373;DHT22;3219;51.362;7.074;2023-04-10T14:39:12;16.60;88.20
6373;DHT22;3219;51.362;7.074;2023-04-10T14:41:39;16.60;88.20
6373;DHT22;3219;51.362;7.074;2023-04-10T14:44:07;16.50;88.80
6373;DHT22;3219;51.362;7.074;2023-04-10T14:46:34;16.50;89.00
6373;DHT22;3219;51.362;7.074;2023-04-10T14:49:01;16.50;89.40
6373;DHT22;3219;51.362;7.074;2023-04-10T14:51:28;16.50;89.40
6373;DHT22;3219;51.362;7.074;2023-04-10T14:53:55;16.40;88.60
6373;DHT22;3219;51.362;7.074;2023-04-10T14:56:22;16.40;88.20
6373;DHT22;3219;51.362;7.074;2023-04-10T14:58:48;16.30;88.30
6373;DHT22;3219;51.362;7.074;2023-04-10T15:01:17;16.30;89.00
6373;DHT22;3219;51.362;7.074;2023-04-10T15:03:46;16.30;89.50
6373;DHT22;3219;51.362;7.074;2023-04-10T15:06:13;16.30;89.60
6373;DHT22;3219;51.362;7.074;2023-04-10T15:08:40;16.30;90.00
6373;DHT22;3219;51.362;7.074;2023-04-10T15:11:07;16.30;90.00
6373;DHT22;3219;51.362;7.074;2023-04-10T15:13:33;16.30;90.10
6373;DHT22;3219;51.362;7.074;2023-04-10T15:16:02;16.30;90.20
6373;DHT22;3219;51.362;7.074;2023-04-10T15:18:30;16.20;90.30
6373;DHT22;3219;51.362;7.074;2023-04-10T15:20:57;16.20;90.00
6373;DHT22;3219;51.362;7.074;2023-04-10T15:23:23;16.20;90.50
6373;DHT22;3219;51.362;7.074;2023-04-10T15:25:51;16.20;90.80
6373;DHT22;3219;51.362;7.074;2023-04-10T15:28:18;16.30;90.30
6373;DHT22;3219;51.362;7.074;2023-04-10T15:30:44;16.30;90.70
6373;DHT22;3219;51.362;7.074;2023-04-10T15:33:13;16.40;90.70
6373;DHT22;3219;51.362;7.074;2023-04-10T15:35:41;16.40;90.50
6373;DHT22;3219;51.362;7.074;2023-04-10T15:38:08;16.40;91.10
6373;DHT22;3219;51.362;7.074;2023-04-10T15:40:37;16.40;91.70
6373;DHT22;3219;51.362;7.074;2023-04-10T15:43:03;16.40;91.80
6373;DHT22;3219;51.362;7.074;2023-04-10T15:45:30;16.40;91.70
6373;DHT22;3219;51.362;7.074;2023-04-10T15:47:57;16.50;90.70
6373;DHT22;3219;51.362;7.074;2023-04-10T15:50:25;16.50;90.20
6373;DHT22;3219;51.362;7.074;2023-04-10T15:52:53;16.50;90.80
6373;DHT22;3219;51.362;7.074;2023-04-10T15:55:20;16.60;91.00
6373;DHT22;3219;51.362;7.074;2023-04-10T15:57:47;16.50;90.60
6373;DHT22;3219;51.362;7.074;2023-04-10T16:00:14;16.60;90.30
6373;DHT22;3219;51.362;7.074;2023-04-10T16:02:41;16.50;90.10
6373;DHT22;3219;51.362;7.074;2023-04-10T16:05:08;16.50;90.60
6373;DHT22;3219;51.362;7.074;2023-04-10T16:07:34;16.40;90.80
6373;DHT22;3219;51.362;7.074;2023-04-10T16:10:04;16.40;90.90
6373;DHT22;3219;51.362;7.074;2023-04-10T16:12:31;16.40;90.60
6373;DHT22;3219;51.362;7.074;2023-04-10T16:14:58;16.30;90.70
6373;DHT22;3219;51.362;7.074;2023-04-10T16:17:25;16.20;90.80
6373;DHT22;3219;51.362;7.074;2023-04-10T16:19:52;16.20;90.90
6373;DHT22;3219;51.362;7.074;2023-04-10T16:22:19;16.20;91.20
6373;DHT22;3219;51.362;7.074;2023-04-10T16:24:45;16.10;91.40
6373;DHT22;3219;51.362;7.074;2023-04-10T16:27:13;16.00;91.50
6373;DHT22;3219;51.362;7.074;2023-04-10T16:29:40;16.00;91.30
6373;DHT22;3219;51.362;7.074;2023-04-10T16:32:07;15.90;91.70
6373;DHT22;3219;51.362;7.074;2023-04-10T16:34:33;15.90;92.00
6373;DHT22;3219;51.362;7.074;2023-04-10T16:37:00;15.80;92.20
6373;DHT22;3219;51.362;7.074;2023-04-10T16:39:27;15.80;92.20
6373;DHT22;3219;51.362;7.074;2023-04-10T16:41:54;15.70;92.30